Airfield :
LOGIN :

Register | Disclaimer

   EN    FR    IT 

 










Legend :    VFR   Marginal VFR   IFR   Intensive IFR   Very Intensive IFR
Visi :
Ceiling :
>= 8 km
>= 3000ft
5 to 8 km
1000 to 3000 ft
1500m to 5 km
500 to 1000 ft
800 to 1500m
200 to 500 ft
< 800m
< 200 ft
Symbols :   Thunderstorms  Fog  Heavy snow  Heavy precipitations  Wind > 20 kt
SIGMETs :     Misc.  Thunderstorms  Icing  Turbulence  Mountain Waves  Volcanic Ashes







- Airport Elevation : 16 ft
- IATA code : SDR


LEXJ - Santander Cantabria

CURRENT METAR :
  • 250400Z 22007KT 180V330 9999 FEW040 12/05 Q1000

EXPIRED METARs :
  • 250330Z 21004KT 130V270 9999 FEW040 12/05 Q1000
  • 250300Z AUTO 11001KT 9000 NSC 10/08 Q1000
  • 250230Z AUTO 20002KT 9000 NSC 10/09 Q1000
  • 250200Z AUTO 11005KT 070V140 7000 NSC 10/09 Q1000
  • 250130Z AUTO VRB02KT 7000 NCD 10/09 Q1000

TAF TAF LEXJ
Valid from the 25 at 03:00 until the 26 at 03:00 UTC


250200Z 2503/2603 22009KT 9999 SCT050 TX19/2515Z TN08/2506Z
TEMPO 2503/2518 22015G30KT
PROB40
TEMPO 2518/2524 26015G30KT SHRA TS SCT025TCU SCT030CB
No reported NOTAMs for that airfield.



MET'MAP, your aeronautical weather chart ! - Copyright ORBIFLY December 2007 - Disclaimer

ORBIFLY MET'MAP TEAM :

Programming & Development : Alexandra Zaïnal
Concept & Development : Baudouin d'Aumeries
Co-Development & Prog : Marc-Olivier Méhu
Technical & hardware support : Manuel Goepfert

Contact : metmap@orbifly.com




SOURCES & CREDITS :

   NOAA